McGrath, Alaska
Current Conditions -  °F | °C
As of 1:53 PM on Thursday 23 Oct 2014 (Local Time) from PAMC Reporting Station
Broken Clouds Broken Clouds  
Wind Chill: -3°   Ceiling: 10000
Heat Index: -3°   Visibility: 10mi
Dew Point: -7°   Wind: 0mph
Humidity: 75%   Direction: NA
Pressure: 29.86"   Gusts: NA
Location:  62.96°N, 155.6°W
Report Text: PAMC 232153Z 00000KT 10SM FEW026 SCT050 BKN100 M03/M07 A2986 RMK SLP120 T10331072 VIA AUTODIAL
Loading
Personal Weather Stations






























Interactive Weather Map
Tropical Storm Tracking
New forecast layout! Learn more

10-Day Weather Forecast

Advertisements
Track Severe Weather on mobile